Aviation Digital Data Service (ADDS)

Output produced by METARs form (0057 UTC 20 April 2019)
found at http://www.aviationweather.gov/metar/data/
 
Forecast for: LYPG (PODGORICA(TITOGR, CS)
Text: TAF LYPG 192300Z 2000/2024 36007KT CAVOK TX25/2013Z TN10/2004Z
Forecast period: 0000 UTC 20 April 2019 to 0000 UTC 21 April 2019
Forecast type: FROM: standard forecast or significant change
Winds: from the N (360 degrees) at 8 MPH (7 knots; 3.6 m/s)
Visibility: 6 or more miles 10+ km)
Ceiling: unknown
Clouds: missing
Weather: no significant weather forecast for this period